Campo (448) Station Data

Red Flag Warning: No
Fire Weather Zone: 258
SDGE Region: Mountain Empire
Lat/Lon: 32.599/-116.493

Observations

Time Wind Speed/Gust Temp(F) RH Fuel Moist Fuel Temp(F) Dewpt(F) Tmax(F) Tmin(F) Accum Precip 10-min Precip SL Press(mb)
3/29 8:00am 57 6 G 9 55° 26% - - 21° 56.4° 38.6° - - -
3/29 7:50am 53 7 G 10 54° 25% - - 19° 54.7° 38.6° - - -
3/29 7:40am 62 8 G 13 54° 24% - - 18° 54.6° 38.6° - - -
3/29 7:30am 64 9 G 12 52° 27% - - 19° 52.9° 38.6° - - -
3/29 7:20am 56 8 G 13 48° 33% - - 20° 50.7° 38.6° - - -
3/29 7:10am 28 6 G 8 45° 39% - - 21° 45.5° 38.6° - - -
3/29 7:00am 23 7 G 8 43° 42% - - 22° 44.5° 38.6° - - -
3/29 6:50am 22 6 G 8 43° 42% - - 22° 44.5° 38.6° - - -
3/29 6:40am 23 5 G 7 42° 45% - - 22° 44.5° 38.6° - - -
3/29 6:30am 22 5 G 7 40° 49% - - 23° 44.5° 38.6° - - -
3/29 6:20am 27 5 G 7 42° 45% - - 22° 44.5° 38.6° - - -
3/29 6:10am 43 4 G 6 43° 44% - - 22° 44.5° 38.6° - - -
3/29 6:00am 32 5 G 8 42° 47% - - 23° 44.5° 38.6° - - -
3/29 5:50am 20 6 G 10 42° 45% - - 23° 44.5° 38.6° - - -
3/29 5:40am 21 6 G 10 41° 50% - - 23° 44.5° 38.6° - - -
3/29 5:30am 19 6 G 8 41° 50% - - 23° 44.5° 38.6° - - -
3/29 5:20am 22 6 G 9 43° 45% - - 23° 44.5° 38.6° - - -
3/29 5:10am 27 9 G 13 41° 48% - - 23° 44.5° 38.6° - - -
3/29 5:00am 20 6 G 9 40° 52% - - 24° 44.5° 38.6° - - -
3/29 4:50am 22 6 G 9 40° 55% - - 25° 44.5° 38.6° - - -
3/29 4:40am 23 5 G 9 40° 53% - - 24° 44.5° 39.2° - - -
3/29 4:30am 86 3 G 6 42° 47% - - 23° 44.5° 39.2° - - -
3/29 4:20am 41 2 G 6 41° 51% - - 24° 44.5° 39.2° - - -
3/29 4:10am 28 4 G 7 41° 50% - - 24° 44.5° 39.2° - - -
3/29 4:00am 23 4 G 7 41° 51% - - 24° 44.5° 39.2° - - -
3/29 3:50am 48 2 G 6 41° 50% - - 24° 44.5° 39.2° - - -
3/29 3:40am 9 6 G 8 42° 47% - - 23° 44.5° 39.2° - - -
3/29 3:30am 17 7 G 10 43° 44% - - 23° 44.5° 39.2° - - -
3/29 3:20am 20 8 G 10 43° 45% - - 23° 44.5° 39.2° - - -
3/29 3:10am 22 8 G 11 42° 49% - - 24° 44.5° 39.2° - - -
3/29 3:00am 25 7 G 10 41° 51% - - 24° 44.5° 39.2° - - -
3/29 2:50am 23 5 G 7 41° 51% - - 24° 44.5° 39.2° - - -
3/29 2:40am 23 5 G 6 42° 48% - - 24° 44.5° 39.2° - - -
3/29 2:30am 36 6 G 8 43° 46% - - 23° 44.5° 39.2° - - -
3/29 2:20am 16 6 G 8 41° 52% - - 25° 44.4° 39.2° - - -
3/29 2:10am 33 6 G 9 43° 49% - - 25° 44.4° 39.2° - - -
3/29 2:00am 41 6 G 9 43° 49% - - 25° 44.4° 39.2° - - -
3/29 1:50am 34 7 G 11 42° 55% - - 27° 44.4° 39.2° - - -
3/29 1:40am 41 11 G 14 40° 67% - - 30° 44.4° 39.2° - - -
3/29 1:30am 28 8 G 13 40° 70% - - 31° 44.4° 39.6° - - -
3/29 1:20am 25 10 G 15 42° 63% - - 30° 44.4° 40.7° - - -
3/29 1:10am 15 6 G 10 43° 57% - - 29° 44.4° 41.1° - - -
3/29 1:00am 32 3 G 6 41° 67% - - 31° 44.4° 41.1° - - -
3/29 12:50am 17 3 G 5 42° 67% - - 31° 44.4° 41.5° - - -
3/29 12:40am 20 3 G 8 43° 62% - - 31° 44.4° 41.9° - - -
3/29 12:30am 20 8 G 11 44° 59% - - 31° 44.4° 42.9° - - -
3/29 12:20am 31 6 G 9 43° 64% - - 32° 44.1° 42.9° - - -
3/29 12:10am 24 5 G 8 44° 62% - - 32° 44.1° 43° - - -
3/29 12:00am 346 3 G 6 44° 63% - - 32° 70.9° 35.3° - - -
3/28 11:50pm 28 5 G 7 45° 66% - - 34° 70.9° 35.3° - - -
3/28 11:40pm 42 8 G 10 45° 71% - - 36° 70.9° 35.3° - - -
3/28 11:30pm 52 8 G 11 45° 70% - - 35° 70.9° 35.3° - - -
3/28 11:20pm 57 7 G 11 46° 68% - - 36° 70.9° 35.3° - - -
3/28 11:10pm 54 7 G 9 46° 69% - - 36° 70.9° 35.3° - - -
3/28 11:00pm 37 9 G 11 46° 68% - - 36° 70.9° 35.3° - - -
3/28 10:50pm 39 9 G 11 46° 70% - - 37° 70.9° 35.3° - - -
3/28 10:40pm 45 8 G 11 48° 70% - - 38° 70.9° 35.3° - - -
3/28 10:30pm 34 7 G 9 48° 71% - - 39° 70.9° 35.3° - - -
3/28 10:20pm 24 6 G 10 47° 73% - - 39° 70.9° 35.3° - - -
3/28 10:10pm 29 6 G 8 48° 73% - - 39° 70.9° 35.3° - - -
3/28 10:00pm 24 6 G 9 47° 74% - - 39° 70.9° 35.3° - - -
3/28 9:50pm 27 5 G 7 48° 73% - - 40° 70.9° 35.3° - - -
3/28 9:40pm 31 4 G 7 47° 75% - - 39° 70.9° 35.3° - - -
3/28 9:30pm 36 3 G 6 47° 75% - - 39° 70.9° 35.3° - - -
3/28 9:20pm 33 3 G 5 47° 74% - - 39° 70.9° 35.3° - - -
3/28 9:10pm 29 2 G 4 49° 72% - - 40° 70.9° 35.3° - - -
3/28 9:00pm 31 2 G 3 49° 71% - - 40° 70.9° 35.3° - - -
3/28 8:50pm 21 2 G 3 50° 69% - - 40° 70.9° 35.3° - - -
3/28 8:40pm 23 2 G 3 51° 68% - - 41° 70.9° 35.3° - - -
3/28 8:30pm 19 2 G 3 52° 65% - - 40° 70.9° 35.3° - - -
3/28 8:20pm 41 0 G 2 54° 61% - - 41° 70.9° 35.3° - - -
3/28 8:10pm 53 0 G 1 55° 58% - - 41° 70.9° 35.3° - - -
3/28 8:00pm 199 1 G 3 57° 56% - - 41° 70.9° 35.3° - - -
3/28 7:50pm 209 2 G 4 57° 56% - - 42° 70.9° 35.3° - - -
3/28 7:40pm 167 0 G 3 57° 56% - - 42° 70.9° 35.3° - - -
3/28 7:30pm 57 1 G 3 58° 55% - - 42° 70.9° 35.3° - - -
3/28 7:20pm 203 3 G 8 59° 53% - - 42° 70.9° 35.3° - - -
3/28 7:10pm 210 5 G 10 60° 51% - - 41° 70.9° 35.3° - - -
3/28 7:00pm 209 5 G 9 60° 49% - - 41° 70.9° 35.3° - - -
3/28 6:50pm 213 5 G 8 62° 48% - - 41° 70.9° 35.3° - - -
3/28 6:40pm 212 7 G 11 62° 46% - - 41° 70.9° 35.3° - - -
3/28 6:30pm 214 7 G 14 63° 45% - - 41° 70.9° 35.3° - - -
3/28 6:20pm 213 9 G 16 63° 43% - - 41° 70.9° 35.3° - - -
3/28 6:10pm 213 10 G 15 64° 41% - - 40° 70.9° 35.3° - - -
3/28 6:00pm 216 11 G 19 64° 39% - - 39° 70.9° 35.3° - - -
3/28 5:50pm 215 11 G 16 65° 37% - - 38° 70.9° 35.3° - - -
3/28 5:40pm 216 12 G 17 65° 35% - - 37° 70.9° 35.3° - - -
3/28 5:30pm 220 10 G 16 66° 33% - - 36° 70.9° 35.3° - - -
3/28 5:20pm 213 11 G 20 66° 30% - - 34° 70.9° 35.3° - - -
3/28 5:10pm 224 11 G 18 67° 28% - - 33° 70.9° 35.3° - - -
3/28 5:00pm 215 11 G 17 67° 27% - - 32° 70.9° 35.3° - - -
3/28 4:50pm 214 9 G 17 68° 26% - - 32° 70.9° 35.3° - - -
3/28 4:40pm 221 9 G 15 68° 25% - - 31° 70.9° 35.3° - - -
3/28 4:30pm 223 8 G 14 69° 24% - - 30° 70.9° 35.3° - - -
3/28 4:20pm 221 10 G 16 69° 23% - - 30° 70.9° 35.3° - - -
3/28 4:10pm 226 8 G 15 69° 23% - - 30° 70.9° 35.3° - - -
3/28 4:00pm 218 7 G 13 70° 23% - - 30° 70.9° 35.3° - - -
3/28 3:50pm 226 7 G 11 69° 22% - - 29° 70.9° 35.3° - - -
3/28 3:40pm 221 9 G 14 69° 23% - - 30° 70.9° 35.3° - - -
3/28 3:30pm 236 8 G 16 69° 23% - - 30° 70.9° 35.3° - - -
3/28 3:20pm 215 5 G 13 69° 23% - - 30° 70.7° 35.3° - - -
3/28 3:10pm 228 6 G 13 69° 22% - - 29° 70.7° 35.3° - - -
3/28 3:00pm 215 8 G 15 69° 23% - - 29° 70.7° 35.3° - - -
3/28 2:50pm 219 8 G 17 69° 23% - - 30° 70.7° 35.3° - - -
3/28 2:40pm 223 7 G 15 69° 22% - - 29° 70.7° 35.3° - - -
3/28 2:30pm 210 8 G 16 69° 22% - - 29° 70.7° 35.3° - - -
3/28 2:20pm 218 10 G 17 69° 22% - - 29° 70.7° 35.3° - - -
3/28 2:10pm 227 7 G 14 69° 21% - - 27° 70.7° 35.3° - - -
3/28 2:00pm 215 8 G 14 69° 21% - - 27° 70.7° 35.3° - - -
3/28 1:50pm 212 6 G 13 70° 20% - - 27° 70.7° 35.3° - - -
3/28 1:40pm 215 10 G 17 68° 22% - - 28° 69.3° 35.3° - - -
3/28 1:30pm 215 10 G 16 68° 22% - - 27° 68.8° 35.3° - - -
3/28 1:20pm 222 7 G 15 68° 22% - - 28° 68.8° 35.3° - - -
3/28 1:10pm 221 8 G 13 68° 22% - - 27° 68.4° 35.3° - - -
3/28 1:00pm 221 10 G 18 67° 21% - - 26° 68.4° 35.3° - - -
3/28 12:50pm 221 9 G 17 68° 21% - - 26° 68.4° 35.3° - - -
3/28 12:40pm 237 7 G 17 68° 20% - - 26° 68.4° 35.3° - - -
3/28 12:30pm 222 6 G 14 68° 20% - - 25° 68.4° 35.3° - - -
3/28 12:20pm 243 5 G 10 68° 21% - - 26° 68.4° 35.3° - - -
3/28 12:10pm 233 6 G 12 67° 21% - - 26° 68.4° 35.3° - - -
3/28 12:00pm 224 8 G 14 66° 20% - - 24° 67.9° 35.3° - - -
3/28 11:50am 219 9 G 18 66° 20% - - 24° 67.9° 35.3° - - -
3/28 11:40am 226 9 G 14 66° 19% - - 22° 67.9° 35.3° - - -
3/28 11:30am 222 7 G 14 66° 17% - - 20° 67.9° 35.3° - - -
3/28 11:20am 225 6 G 12 67° 16% - - 19° 67.9° 35.3° - - -
3/28 11:10am 50 3 G 8 67° 14% - - 17° 67.9° 35.3° - - -
3/28 11:00am 72 3 G 6 66° 14% - - 16° 67.1° 35.3° - - -
3/28 10:50am 16 2 G 6 67° 15% - - 17° 67.1° 35.3° - - -
3/28 10:40am 113 3 G 10 65° 15% - - 16° 65.4° 35.3° - - -
3/28 10:30am 37 5 G 10 64° 16% - - 16° 64.5° 35.3° - - -
3/28 10:20am 67 9 G 13 62° 17% - - 17° 63.3° 35.3° - - -
3/28 10:10am 53 7 G 13 63° 18% - - 18° 63.3° 35.3° - - -
3/28 10:00am 52 5 G 12 62° 18% - - 18° 62.7° 35.3° - - -
3/28 9:50am 40 8 G 12 62° 19% - - 18° 62.1° 35.3° - - -
3/28 9:40am 38 8 G 14 61° 20% - - 19° 61.1° 35.3° - - -
3/28 9:30am 45 9 G 14 60° 21% - - 20° 60.4° 35.3° - - -
3/28 9:20am 40 10 G 14 59° 23% - - 21° 59.7° 35.3° - - -
3/28 9:10am 50 5 G 10 58° 29% - - 26° 58.5° 35.3° - - -
3/28 9:00am 51 5 G 7 57° 31% - - 26° 57° 35.3° - - -
3/28 8:50am 60 4 G 5 55° 35% - - 28° 56.2° 35.3° - - -
3/28 8:40am 61 2 G 3 53° 40% - - 30° 54.5° 35.3° - - -
3/28 8:30am 30 2 G 6 52° 43% - - 30° 53.1° 35.3° - - -
3/28 8:20am 66 4 G 6 49° 45% - - 29° 50.6° 35.3° - - -
3/28 8:10am 64 4 G 6 47° 48% - - 28° 47.9° 35.3° - - -
3/28 8:00am 68 3 G 6 44° 55% - - 29° 46.7° 35.3° - - -
3/28 7:50am 42 5 G 8 42° 61% - - 30° 46.7° 35.3° - - -
3/28 7:40am 42 9 G 11 40° 66% - - 30° 46.7° 35.3° - - -
3/28 7:30am 32 8 G 11 37° 79% - - 31° 46.7° 35.3° - - -
3/28 7:20am 25 5 G 8 36° 81% - - 31° 46.7° 35.3° - - -
3/28 7:10am 37 3 G 4 36° 80% - - 31° 46.7° 35.3° - - -
3/28 7:00am 356 4 G 8 36° 81% - - 31° 46.7° 35.3° - - -
3/28 6:50am 26 5 G 8 36° 81% - - 31° 46.7° 35.3° - - -
3/28 6:40am 85 2 G 5 37° 79% - - 31° 46.7° 35.7° - - -
3/28 6:30am 27 6 G 9 37° 81% - - 32° 46.7° 35.7° - - -
3/28 6:20am 18 8 G 12 37° 82% - - 32° 46.7° 35.7° - - -
3/28 6:10am 23 6 G 11 36° 83% - - 32° 46.7° 35.7° - - -
3/28 6:00am 20 5 G 7 37° 81% - - 31° 46.7° 35.9° - - -